Time;durP1;ratioP1;P1;durP2;ratioP2;P2;SDS_P1;SDS_P2;PMS_P1;PMS_P2;Temp;Humidity;BMP_temperature;BMP_pressure;BME280_temperature;BME280_humidity;BME280_pressure;Samples;Min_cycle;Max_cycle;Signal;HPM_P1;HPM_P2
2023/09/07 00:00:10;;;;;;;0.60;0.60;;;21.00;99.90;;;;;;5088607;28;20488;-78
2023/09/07 00:02:36;;;;;;;1.00;0.70;;;21.00;99.90;;;;;;5088034;28;20520;-78
2023/09/07 00:05:02;;;;;;;0.60;0.60;;;20.90;99.90;;;;;;5076760;28;20075;-78
2023/09/07 00:07:28;;;;;;;0.70;0.65;;;20.90;1.00;;;;;;5078884;28;20146;-77
2023/09/07 00:09:53;;;;;;;0.60;0.60;;;20.80;1.00;;;;;;5070552;28;20058;-77
2023/09/07 00:12:19;;;;;;;0.90;0.70;;;20.70;1.00;;;;;;5075836;28;20049;-77
2023/09/07 00:14:46;;;;;;;0.60;0.50;;;20.70;11.00;;;;;;5101942;28;20045;-77
2023/09/07 00:17:12;;;;;;;0.88;0.82;;;20.60;92.80;;;;;;5064580;28;20073;-77
2023/09/07 00:19:37;;;;;;;0.82;0.60;;;20.60;90.00;;;;;;5084704;28;20035;-77
2023/09/07 00:22:03;;;;;;;0.63;0.60;;;20.60;99.90;;;;;;5051128;28;20040;-77
2023/09/07 00:24:31;;;;;;;1.08;0.90;;;20.50;99.90;;;;;;5068246;28;20066;-77
2023/09/07 00:26:57;;;;;;;0.80;0.80;;;20.50;99.90;;;;;;5084028;28;20097;-77
2023/09/07 00:29:23;;;;;;;1.25;0.80;;;20.40;99.90;;;;;;5068773;28;20426;-77
2023/09/07 00:31:49;;;;;;;1.00;0.80;;;20.30;99.90;;;;;;5085472;28;20085;-77
2023/09/07 00:34:14;;;;;;;1.05;0.90;;;20.20;1.00;;;;;;5084595;28;20035;-77
2023/09/07 00:36:40;;;;;;;1.10;0.90;;;20.10;1.00;;;;;;5091493;28;20048;-77
2023/09/07 00:39:06;;;;;;;1.00;0.80;;;20.10;1.00;;;;;;5084162;28;20052;-77
2023/09/07 00:41:31;;;;;;;1.02;0.90;;;20.10;54.70;;;;;;5075821;28;20045;-77
2023/09/07 00:43:57;;;;;;;;;;;20.00;41.10;;;;;;5075975;28;20044;-77
2023/09/07 00:46:23;;;;;;;0.82;0.80;;;20.00;10.10;;;;;;5098174;28;20397;-77
2023/09/07 00:48:49;;;;;;;;;;;20.00;34.00;;;;;;5100050;28;20047;-77
2023/09/07 00:51:15;;;;;;;0.80;0.80;;;20.00;58.50;;;;;;5072531;28;19945;-77
2023/09/07 00:53:41;;;;;;;1.13;0.70;;;19.90;36.90;;;;;;5086129;28;20043;-77
2023/09/07 00:56:07;;;;;;;1.15;0.80;;;19.90;73.40;;;;;;5058718;28;20043;-77
2023/09/07 00:58:33;;;;;;;0.82;0.77;;;19.90;99.90;;;;;;5072843;28;20379;-77
2023/09/07 01:00:59;;;;;;;0.88;0.73;;;19.80;99.90;;;;;;5037061;28;20055;-77
2023/09/07 01:03:25;;;;;;;0.73;0.60;;;19.70;99.90;;;;;;5087986;28;20505;-77
2023/09/07 01:06:02;;;;;;;1.75;1.10;;;19.70;99.90;;;;;;5081756;28;20044;-77
2023/09/07 01:08:46;;;;;;;0.88;0.70;;;19.70;99.90;;;;;;5070639;28;20190;-77
2023/09/07 01:11:16;;;;;;;1.08;0.80;;;19.70;99.90;;;;;;5078360;28;20044;-77
2023/09/07 01:13:42;;;;;;;0.85;0.68;;;19.70;99.90;;;;;;5086758;28;20054;-77
2023/09/07 01:16:09;;;;;;;0.60;0.60;;;19.70;99.90;;;;;;5074043;28;20380;-77
2023/09/07 01:18:37;;;;;;;1.30;0.90;;;19.70;99.90;;;;;;5077742;28;20550;-77
2023/09/07 01:21:07;;;;;;;0.70;0.70;;;19.70;99.90;;;;;;5067718;28;20391;-78
2023/09/07 01:23:39;;;;;;;0.73;0.50;;;19.60;99.90;;;;;;5082391;28;20113;-77
2023/09/07 01:26:08;;;;;;;0.80;0.70;;;19.60;99.90;;;;;;5085635;28;20111;-77
2023/09/07 01:28:34;;;;;;;1.08;0.88;;;19.60;99.90;;;;;;5082101;28;20170;-77
2023/09/07 01:31:01;;;;;;;0.68;0.60;;;19.60;99.90;;;;;;5070739;28;20067;-77
2023/09/07 01:33:27;;;;;;;0.93;0.70;;;19.60;99.90;;;;;;5053157;28;20063;-77
2023/09/07 01:35:52;;;;;;;0.75;0.70;;;19.60;99.90;;;;;;5070347;28;20051;-77
2023/09/07 01:38:18;;;;;;;;;;;19.60;99.90;;;;;;5078751;28;20378;-77
2023/09/07 01:40:44;;;;;;;0.45;0.45;;;19.60;99.90;;;;;;5081374;28;19924;-77
2023/09/07 01:43:10;;;;;;;;;;;19.50;98.50;;;;;;5054232;28;20061;-77
2023/09/07 01:45:35;;;;;;;1.05;0.70;;;19.50;56.90;;;;;;5083066;28;19924;-77
2023/09/07 01:48:03;;;;;;;;;;;19.50;53.30;;;;;;5088892;28;20556;-77
2023/09/07 01:50:28;;;;;;;;;;;19.50;32.20;;;;;;5099773;28;20066;-77
2023/09/07 01:52:54;;;;;;;0.82;0.73;;;19.50;13.60;;;;;;5105652;28;20026;-77
2023/09/07 01:55:19;;;;;;;;;;;19.50;37.60;;;;;;5068175;28;20040;-77
2023/09/07 01:57:45;;;;;;;0.73;0.63;;;19.50;11.40;;;;;;5068670;28;19916;-77
2023/09/07 02:00:11;;;;;;;;;;;19.50;36.50;;;;;;5082877;28;20445;-77
2023/09/07 02:02:37;;;;;;;1.65;1.05;;;19.40;24.40;;;;;;5080048;28;19921;-77
2023/09/07 02:05:03;;;;;;;0.90;0.70;;;19.40;56.60;;;;;;5079861;28;20518;-77
2023/09/07 02:07:29;;;;;;;0.90;0.70;;;19.30;66.80;;;;;;5081502;28;20060;-78
2023/09/07 02:09:55;;;;;;;;;;;19.30;94.80;;;;;;5080871;28;20043;-78
2023/09/07 02:12:20;;;;;;;1.08;0.98;;;19.20;99.90;;;;;;5082005;28;19970;-78
2023/09/07 02:14:46;;;;;;;;;;;19.20;99.90;;;;;;5066900;28;20032;-77
2023/09/07 02:17:17;;;;;;;1.85;0.73;;;19.20;99.90;;;;;;5080539;28;20366;-77
2023/09/07 02:19:44;;;;;;;0.70;0.70;;;19.10;99.90;;;;;;5082961;28;20040;-77
2023/09/07 02:22:09;;;;;;;1.00;0.93;;;19.10;99.90;;;;;;5082574;28;20453;-78
2023/09/07 02:24:35;;;;;;;;;;;19.00;99.90;;;;;;5082120;28;20039;-78
2023/09/07 02:27:01;;;;;;;1.00;0.90;;;19.00;99.90;;;;;;5093509;28;19928;-78
2023/09/07 02:29:26;;;;;;;1.10;0.90;;;19.00;99.90;;;;;;5085567;28;20040;-78
2023/09/07 02:31:52;;;;;;;;;;;18.90;99.90;;;;;;5085736;28;20380;-78
2023/09/07 02:34:18;;;;;;;1.42;0.90;;;18.90;99.90;;;;;;5085696;28;19927;-78
2023/09/07 02:36:44;;;;;;;;;;;18.80;99.90;;;;;;5086557;28;20408;-77
2023/09/07 02:39:11;;;;;;;1.20;0.90;;;18.80;99.90;;;;;;5088441;28;19985;-77
2023/09/07 02:41:37;;;;;;;1.33;1.00;;;18.70;1.00;;;;;;5066031;28;20474;-78
2023/09/07 02:44:03;;;;;;;1.20;0.90;;;18.70;1.00;;;;;;5069061;28;20037;-78
2023/09/07 02:46:29;;;;;;;1.00;0.90;;;18.70;1.00;;;;;;5085483;28;20519;-77
2023/09/07 02:48:57;;;;;;;;;;;18.60;1.00;;;;;;5086241;28;20063;-77
2023/09/07 02:51:24;;;;;;;1.45;1.02;;;18.60;1.00;;;;;;5091211;28;19946;-77
2023/09/07 02:53:50;;;;;;;1.38;0.98;;;18.60;1.00;;;;;;5084969;28;20135;-77
2023/09/07 02:56:16;;;;;;;1.25;1.00;;;18.50;12.90;;;;;;5065071;28;20036;-78
2023/09/07 02:58:41;;;;;;;;;;;18.50;13.90;;;;;;5052011;28;20403;-77
2023/09/07 03:01:10;;;;;;;1.40;0.95;;;18.40;25.10;;;;;;5067797;28;19930;-77
2023/09/07 03:03:36;;;;;;;1.00;0.90;;;18.30;44.50;;;;;;5085521;28;20059;-77
2023/09/07 03:06:12;;;;;;;1.35;1.00;;;18.30;70.00;;;;;;5084774;28;20058;-77
2023/09/07 03:08:42;;;;;;;1.50;1.08;;;18.30;87.60;;;;;;5085375;28;20089;-77
2023/09/07 03:11:09;;;;;;;1.10;0.93;;;18.30;94.60;;;;;;5085769;28;20437;-77
2023/09/07 03:13:35;;;;;;;1.10;1.00;;;18.30;92.40;;;;;;5083312;28;20051;-77
2023/09/07 03:16:03;;;;;;;;;;;18.30;97.50;;;;;;5085237;28;20039;-77
2023/09/07 03:18:29;;;;;;;1.20;1.00;;;18.30;94.60;;;;;;5077203;28;20337;-77
2023/09/07 03:20:58;;;;;;;1.65;1.00;;;18.30;99.90;;;;;;5084044;28;20051;-77
2023/09/07 03:23:24;;;;;;;2.83;1.00;;;18.20;99.90;;;;;;5068252;28;20047;-77
2023/09/07 03:25:49;;;;;;;;;;;18.20;99.90;;;;;;5085328;28;20052;-77
2023/09/07 03:28:15;;;;;;;1.60;1.30;;;18.10;99.90;;;;;;5086144;28;19920;-77
2023/09/07 03:30:41;;;;;;;;;;;18.10;99.90;;;;;;5084331;28;20499;-77
2023/09/07 03:33:06;;;;;;;1.25;1.10;;;18.00;99.90;;;;;;5085648;28;20024;-77
2023/09/07 03:35:32;;;;;;;;;;;18.00;99.90;;;;;;5086184;28;20754;-77
2023/09/07 03:37:58;;;;;;;1.70;1.05;;;18.00;99.90;;;;;;5086632;28;19998;-77
2023/09/07 03:40:24;;;;;;;;;;;18.00;99.90;;;;;;5094192;28;20140;-77
2023/09/07 03:42:50;;;;;;;1.58;1.00;;;18.10;99.90;;;;;;5067852;28;20272;-77
2023/09/07 03:45:15;;;;;;;;;;;18.00;99.90;;;;;;5058823;28;20036;-77
2023/09/07 03:47:41;;;;;;;1.00;0.90;;;18.00;99.90;;;;;;5089928;28;19920;-77
2023/09/07 03:50:07;;;;;;;1.10;1.00;;;18.00;99.90;;;;;;5093293;28;20036;-77
2023/09/07 03:52:33;;;;;;;1.33;0.82;;;18.00;99.90;;;;;;5091440;28;20083;-77
2023/09/07 03:54:59;;;;;;;;;;;18.00;99.90;;;;;;5090525;28;20040;-77
2023/09/07 03:57:25;;;;;;;1.60;1.25;;;18.00;99.90;;;;;;5074066;28;20016;-77
2023/09/07 03:59:51;;;;;;;1.73;1.20;;;18.10;99.90;;;;;;5068101;28;20078;-78
2023/09/07 04:02:17;;;;;;;;;;;18.10;99.90;;;;;;5085116;28;20047;-79
2023/09/07 04:04:44;;;;;;;1.33;1.00;;;18.10;99.90;;;;;;5058596;28;20370;-79
2023/09/07 04:07:09;;;;;;;1.65;1.10;;;18.10;99.90;;;;;;5088074;28;20089;-78
2023/09/07 04:09:35;;;;;;;;;;;18.00;99.90;;;;;;5061972;28;20052;-78
2023/09/07 04:12:00;;;;;;;1.95;1.15;;;18.00;99.90;;;;;;5071123;28;19924;-78
2023/09/07 04:14:28;;;;;;;;;;;18.00;99.90;;;;;;5052979;28;20052;-77
2023/09/07 04:16:53;;;;;;;1.38;1.20;;;18.00;99.90;;;;;;5082275;28;19927;-79
2023/09/07 04:19:20;;;;;;;1.50;1.25;;;18.10;99.90;;;;;;5080296;28;20047;-88
2023/09/07 04:21:46;;;;;;;1.65;1.45;;;18.10;99.90;;;;;;5044252;28;20054;-78
2023/09/07 04:24:11;;;;;;;;;;;18.10;99.90;;;;;;5072596;28;20040;-78
2023/09/07 04:26:37;;;;;;;1.95;1.30;;;18.10;99.90;;;;;;5081476;28;19924;-75
2023/09/07 04:29:03;;;;;;;;;;;18.00;99.90;;;;;;5084399;28;20048;-76
2023/09/07 04:31:29;;;;;;;1.30;0.90;;;18.10;99.90;;;;;;5090910;28;19924;-75
2023/09/07 04:33:55;;;;;;;1.60;1.48;;;18.00;99.90;;;;;;5078014;28;20044;-73
2023/09/07 04:36:20;;;;;;;;;;;18.00;99.90;;;;;;5051814;28;20604;-76
2023/09/07 04:38:46;;;;;;;1.40;1.02;;;18.00;99.90;;;;;;5094334;28;19916;-76
2023/09/07 04:41:12;;;;;;;;;;;18.00;99.90;;;;;;5088371;28;20051;-76
2023/09/07 04:43:45;;;;;;;1.60;1.40;;;18.00;99.90;;;;;;5055918;28;19968;-81
2023/09/07 04:46:12;;;;;;;1.10;1.00;;;17.90;99.90;;;;;;5088041;28;20068;-75
2023/09/07 04:48:41;;;;;;;1.38;1.15;;;17.90;99.90;;;;;;5089070;28;20040;-75
2023/09/07 04:51:08;;;;;;;1.55;1.30;;;17.90;99.90;;;;;;5091775;28;20032;-75
2023/09/07 04:53:36;;;;;;;1.45;1.15;;;17.90;99.90;;;;;;5076765;28;20040;-75
2023/09/07 04:56:03;;;;;;;1.10;1.00;;;17.90;99.90;;;;;;5081996;28;20048;-75
2023/09/07 04:58:29;;;;;;;1.30;1.00;;;17.90;99.90;;;;;;5087378;28;20047;-74
2023/09/07 05:01:01;;;;;;;;;;;17.90;99.90;;;;;;5084010;28;20040;-74
2023/09/07 05:03:26;;;;;;;1.00;0.90;;;17.80;99.90;;;;;;5087675;28;19920;-74
2023/09/07 05:05:53;;;;;;;;;;;17.90;99.90;;;;;;5085649;28;20055;-74
2023/09/07 05:08:18;;;;;;;1.10;0.90;;;17.80;99.90;;;;;;5084755;28;19928;-74
2023/09/07 05:10:44;;;;;;;;;;;17.80;99.90;;;;;;5069603;28;20096;-74
2023/09/07 05:13:10;;;;;;;1.23;0.90;;;17.80;96.00;;;;;;5070289;28;20007;-75
2023/09/07 05:15:35;;;;;;;;;;;17.90;99.50;;;;;;5081755;28;20474;-75
2023/09/07 05:18:01;;;;;;;1.58;0.90;;;17.90;93.50;;;;;;5079689;28;19924;-75
2023/09/07 05:20:30;;;;;;;1.02;0.90;;;17.90;99.00;;;;;;5081734;28;20048;-74
2023/09/07 05:22:56;;;;;;;1.10;1.00;;;17.90;96.10;;;;;;5080648;28;20536;-73
2023/09/07 05:25:22;;;;;;;1.13;0.98;;;17.90;99.90;;;;;;5059908;28;20044;-73
2023/09/07 05:27:48;;;;;;;;;;;17.90;93.40;;;;;;5094624;28;20105;-74
2023/09/07 05:30:14;;;;;;;1.00;0.90;;;17.90;94.00;;;;;;5095241;28;19921;-74
2023/09/07 05:32:41;;;;;;;;;;;17.90;94.90;;;;;;5085594;28;20047;-74
2023/09/07 05:35:07;;;;;;;1.25;0.82;;;17.90;83.90;;;;;;5072300;28;19923;-74
2023/09/07 05:37:33;;;;;;;0.93;0.82;;;17.90;99.90;;;;;;5053721;28;20413;-74
2023/09/07 05:39:58;;;;;;;;;;;17.90;82.30;;;;;;5099988;28;20040;-73
2023/09/07 05:42:25;;;;;;;0.80;0.80;;;17.90;99.90;;;;;;5083701;28;19927;-73
2023/09/07 05:44:51;;;;;;;1.00;0.88;;;18.00;99.10;;;;;;5082825;28;20123;-74
2023/09/07 05:47:17;;;;;;;;;;;18.00;99.90;;;;;;5085249;28;20180;-75
2023/09/07 05:49:43;;;;;;;2.13;1.40;;;18.00;99.90;;;;;;5078043;28;19920;-74
2023/09/07 05:52:09;;;;;;;2.83;1.20;;;18.10;96.20;;;;;;5079584;28;20430;-73
2023/09/07 05:54:34;;;;;;;;;;;18.10;65.50;;;;;;5073288;28;20045;-75
2023/09/07 05:57:00;;;;;;;1.23;0.90;;;18.10;59.00;;;;;;5094253;28;20321;-76
2023/09/07 05:59:26;;;;;;;;;;;18.20;56.50;;;;;;5094220;28;20047;-76
2023/09/07 06:01:51;;;;;;;1.83;1.30;;;18.20;31.60;;;;;;5050955;28;19997;-76
2023/09/07 06:04:17;;;;;;;;;;;18.30;5.80;;;;;;5063387;28;20372;-75
2023/09/07 06:06:43;;;;;;;1.73;1.33;;;18.30;1.00;;;;;;5113386;27;19919;-75
2023/09/07 06:09:08;;;;;;;1.67;1.17;;;18.40;1.00;;;;;;5094471;28;20048;-76
2023/09/07 06:11:34;;;;;;;;;;;18.40;1.00;;;;;;5072285;28;20044;-76
2023/09/07 06:14:00;;;;;;;2.55;1.85;;;18.50;1.00;;;;;;5071681;28;19960;-76
2023/09/07 06:16:25;;;;;;;;;;;18.60;99.90;;;;;;5079989;28;20134;-76
2023/09/07 06:18:51;;;;;;;2.15;1.30;;;18.70;99.90;;;;;;5107896;28;19920;-76
2023/09/07 06:21:17;;;;;;;;;;;18.70;99.90;;;;;;5077791;28;20538;-75
2023/09/07 06:23:43;;;;;;;2.05;1.60;;;18.80;99.90;;;;;;5077573;28;19916;-76
2023/09/07 06:26:09;;;;;;;1.58;1.48;;;18.80;99.90;;;;;;5090447;28;20647;-76
2023/09/07 06:28:34;;;;;;;;;;;18.90;99.90;;;;;;5075874;28;20043;-76
2023/09/07 06:31:00;;;;;;;1.55;1.23;;;19.00;99.90;;;;;;5083228;28;19924;-76
2023/09/07 06:33:26;;;;;;;;;;;19.10;99.90;;;;;;5074199;28;20081;-76
2023/09/07 06:35:51;;;;;;;3.85;1.73;;;19.20;99.90;;;;;;5062477;28;19920;-76
2023/09/07 06:38:17;;;;;;;;;;;19.40;99.90;;;;;;5067539;28;20492;-76
2023/09/07 06:40:50;;;;;;;3.45;1.75;;;19.90;1.00;;;;;;5056755;28;20399;-76
2023/09/07 06:43:16;;;;;;;2.05;1.55;;;20.40;99.90;;;;;;5071634;28;20040;-76
2023/09/07 06:45:43;;;;;;;1.83;1.50;;;20.90;99.90;;;;;;5083347;28;20463;-85
2023/09/07 06:48:08;;;;;;;2.03;1.63;;;21.30;99.90;;;;;;5074606;28;20035;-76
2023/09/07 06:50:34;;;;;;;2.17;1.80;;;21.60;31.10;;;;;;5058629;28;20043;-76
2023/09/07 06:53:00;;;;;;;2.03;1.70;;;21.90;6.80;;;;;;5061254;28;20090;-76
2023/09/07 06:55:26;;;;;;;2.53;1.90;;;22.10;99.90;;;;;;5105678;28;20048;-76
2023/09/07 06:57:53;;;;;;;2.20;1.80;;;22.30;99.90;;;;;;5081340;28;20052;-76
2023/09/07 07:00:19;;;;;;;2.88;1.92;;;22.50;43.60;;;;;;5061256;28;20042;-76
2023/09/07 07:02:45;;;;;;;2.20;1.77;;;22.70;66.20;;;;;;5054321;28;20036;-76
2023/09/07 07:05:11;;;;;;;1.85;1.38;;;22.80;8.90;;;;;;5074928;28;20044;-76
2023/09/07 07:07:36;;;;;;;1.90;1.70;;;23.00;1.00;;;;;;5074640;28;20056;-76
2023/09/07 07:10:03;;;;;;;2.50;1.60;;;23.20;1.00;;;;;;5058143;28;20543;-76
2023/09/07 07:12:29;;;;;;;1.95;1.50;;;23.40;1.00;;;;;;5074413;28;20040;-76
2023/09/07 07:14:55;;;;;;;2.28;1.77;;;23.50;99.90;;;;;;5087370;28;20173;-76
2023/09/07 07:17:21;;;;;;;3.67;1.73;;;23.70;99.90;;;;;;5089251;28;20502;-76
2023/09/07 07:19:47;;;;;;;2.00;1.70;;;23.90;99.90;;;;;;5072751;28;20097;-76
2023/09/07 07:22:13;;;;;;;3.05;1.65;;;24.00;99.90;;;;;;5083310;28;20031;-76
2023/09/07 07:24:40;;;;;;;2.10;1.60;;;24.00;99.90;;;;;;5082097;28;20040;-76
2023/09/07 07:27:05;;;;;;;1.77;1.60;;;24.10;99.90;;;;;;5069999;28;20048;-76
2023/09/07 07:29:31;;;;;;;2.75;1.52;;;24.10;99.90;;;;;;5078083;28;20078;-76
2023/09/07 07:31:57;;;;;;;2.45;1.70;;;24.30;99.90;;;;;;5075552;28;20040;-76
2023/09/07 07:34:22;;;;;;;3.03;1.90;;;24.40;99.90;;;;;;5091156;28;20373;-76
2023/09/07 07:36:48;;;;;;;2.47;1.63;;;24.40;99.90;;;;;;5088850;28;20047;-76
2023/09/07 07:39:15;;;;;;;1.77;1.45;;;24.50;99.90;;;;;;5059909;28;20059;-76
2023/09/07 07:41:41;;;;;;;1.30;1.20;;;24.50;99.90;;;;;;5084477;28;20053;-76
2023/09/07 07:44:07;;;;;;;2.03;1.50;;;24.60;99.90;;;;;;5066482;28;20149;-76
2023/09/07 07:46:32;;;;;;;2.47;1.50;;;24.60;99.90;;;;;;5073410;28;20044;-76
2023/09/07 07:48:58;;;;;;;1.73;1.50;;;24.70;99.90;;;;;;5075469;28;20097;-76
2023/09/07 07:51:24;;;;;;;2.45;1.63;;;24.70;99.90;;;;;;5088140;28;20063;-76
2023/09/07 07:53:50;;;;;;;3.42;1.75;;;24.60;99.90;;;;;;5075900;28;20047;-76
2023/09/07 07:56:19;;;;;;;2.92;1.80;;;24.60;99.90;;;;;;5084601;28;20048;-76
2023/09/07 07:58:45;;;;;;;2.10;1.73;;;24.70;99.90;;;;;;5076968;28;20051;-76
2023/09/07 08:01:18;;;;;;;3.15;1.65;;;24.60;99.90;;;;;;5090111;28;20050;-76
2023/09/07 08:03:44;;;;;;;2.25;1.75;;;24.60;99.90;;;;;;5084479;28;20376;-76
2023/09/07 08:06:11;;;;;;;2.03;1.70;;;24.50;99.90;;;;;;5099695;28;20780;-76
2023/09/07 08:08:37;;;;;;;1.85;1.65;;;24.70;99.90;;;;;;5085488;28;20052;-77
2023/09/07 08:11:05;;;;;;;1.77;1.40;;;24.90;99.90;;;;;;5063284;28;20082;-76
2023/09/07 08:13:35;;;;;;;2.22;1.52;;;25.00;99.90;;;;;;5073551;28;20055;-76
2023/09/07 08:16:04;;;;;;;2.28;1.70;;;25.10;99.90;;;;;;5067108;28;20403;-76
2023/09/07 08:18:32;;;;;;;1.98;1.65;;;25.20;99.90;;;;;;5081514;28;20062;-77
2023/09/07 08:20:58;;;;;;;1.70;1.50;;;25.40;99.90;;;;;;5073129;28;20510;-76
2023/09/07 08:23:23;;;;;;;3.20;1.67;;;25.50;99.90;;;;;;5106776;28;20043;-77
2023/09/07 08:25:51;;;;;;;1.77;1.50;;;25.60;1.00;;;;;;5056248;28;20048;-76
2023/09/07 08:28:18;;;;;;;1.77;1.30;;;25.60;19.70;;;;;;5094467;28;20036;-76
2023/09/07 08:30:44;;;;;;;1.95;1.50;;;25.80;99.90;;;;;;5075157;28;20079;-76
2023/09/07 08:33:10;;;;;;;1.42;1.15;;;25.90;1.00;;;;;;5076096;28;20151;-76
2023/09/07 08:35:43;;;;;;;1.60;1.17;;;26.10;99.90;;;;;;5094297;28;20070;-76
2023/09/07 08:38:10;;;;;;;1.55;1.10;;;26.30;1.00;;;;;;5089434;28;20044;-76
2023/09/07 08:40:37;;;;;;;1.73;1.40;;;26.50;1.00;;;;;;5089767;28;20048;-76
2023/09/07 08:43:04;;;;;;;2.00;1.50;;;26.60;99.90;;;;;;5072734;28;20048;-76
2023/09/07 08:45:31;;;;;;;1.80;1.20;;;26.60;99.90;;;;;;5063206;28;20052;-76
2023/09/07 08:47:59;;;;;;;1.80;1.63;;;26.60;99.90;;;;;;5070970;28;20041;-76
2023/09/07 08:50:24;;;;;;;1.58;1.30;;;26.70;99.90;;;;;;5064374;28;20109;-76
2023/09/07 08:52:52;;;;;;;1.95;1.42;;;26.80;99.90;;;;;;5069224;28;20036;-76
2023/09/07 08:55:20;;;;;;;1.77;1.27;;;26.90;99.90;;;;;;5073127;28;20039;-76
2023/09/07 08:57:45;;;;;;;2.58;1.23;;;26.90;99.90;;;;;;5089849;28;20054;-81
2023/09/07 09:00:16;;;;;;;1.65;1.42;;;26.90;99.90;;;;;;5069803;28;20040;-81
2023/09/07 09:02:42;;;;;;;1.15;1.05;;;27.00;99.90;;;;;;5070156;28;20517;-81
2023/09/07 09:05:14;;;;;;;2.10;1.52;;;27.10;99.90;;;;;;5076839;28;20040;-81
2023/09/07 09:07:40;;;;;;;2.00;1.42;;;27.20;99.90;;;;;;5099333;28;20035;-81
2023/09/07 09:10:07;;;;;;;1.50;1.33;;;27.30;99.90;;;;;;5072765;28;20492;-81
2023/09/07 09:12:33;;;;;;;1.65;1.35;;;27.40;99.90;;;;;;5083228;28;20051;-81
2023/09/07 09:15:01;;;;;;;1.33;1.20;;;27.50;75.30;;;;;;5067442;28;20415;-81
2023/09/07 09:17:27;;;;;;;1.50;1.20;;;27.60;87.10;;;;;;5083315;28;20475;-81
2023/09/07 09:19:52;;;;;;;2.10;1.30;;;27.60;65.30;;;;;;5095427;28;20040;-81
2023/09/07 09:22:19;;;;;;;1.83;1.35;;;27.80;1.00;;;;;;5072460;28;20040;-81
2023/09/07 09:24:48;;;;;;;2.35;1.70;;;27.90;98.50;;;;;;5089224;28;20077;-81
2023/09/07 09:27:13;;;;;;;2.00;1.40;;;27.90;1.00;;;;;;5058350;28;20080;-81
2023/09/07 09:29:39;;;;;;;2.38;1.60;;;27.90;11.10;;;;;;5056712;28;20551;-81
2023/09/07 09:32:07;;;;;;;1.73;1.33;;;28.00;9.40;;;;;;5076286;28;20041;-81
2023/09/07 09:34:37;;;;;;;2.22;1.58;;;28.00;1.00;;;;;;5083394;28;20168;-81
2023/09/07 09:37:03;;;;;;;1.52;1.20;;;28.10;1.00;;;;;;5085469;28;20049;-81
2023/09/07 09:39:29;;;;;;;2.80;1.25;;;28.20;1.00;;;;;;5087534;28;20051;-81
2023/09/07 09:41:56;;;;;;;1.40;1.30;;;28.30;1.00;;;;;;5098862;28;20076;-81
2023/09/07 09:44:26;;;;;;;2.05;1.40;;;28.30;99.90;;;;;;5076442;28;20548;-81
2023/09/07 09:46:57;;;;;;;2.50;1.45;;;28.30;1.00;;;;;;5093724;28;20491;-80
2023/09/07 09:49:23;;;;;;;1.90;1.27;;;28.30;1.00;;;;;;5081269;28;20080;-81
2023/09/07 09:51:52;;;;;;;1.90;1.30;;;28.30;99.90;;;;;;5073351;28;20506;-80
2023/09/07 09:54:19;;;;;;;1.70;1.10;;;28.30;64.00;;;;;;5080415;28;20044;-81
2023/09/07 09:56:45;;;;;;;3.47;1.83;;;28.40;1.00;;;;;;5083213;28;20498;-78
2023/09/07 09:59:13;;;;;;;1.75;1.40;;;28.40;1.00;;;;;;5082092;28;20036;-78
2023/09/07 10:01:44;;;;;;;2.45;1.50;;;28.50;99.90;;;;;;5081292;28;20060;-78
2023/09/07 10:04:12;;;;;;;2.95;1.80;;;28.60;99.90;;;;;;5091827;28;20086;-78
2023/09/07 10:06:38;;;;;;;2.00;1.77;;;28.50;99.90;;;;;;5090847;28;20051;-79
2023/09/07 10:09:10;;;;;;;2.10;1.60;;;28.40;99.90;;;;;;5080734;28;20048;-77
2023/09/07 10:11:39;;;;;;;3.33;1.75;;;28.40;99.90;;;;;;5081813;28;20063;-78
2023/09/07 10:14:06;;;;;;;2.70;1.90;;;28.40;99.90;;;;;;5090778;28;20561;-78
2023/09/07 10:16:46;;;;;;;3.22;1.65;;;28.50;99.90;;;;;;5071576;28;20472;-78
2023/09/07 10:19:19;;;;;;;2.20;1.80;;;28.50;99.90;;;;;;5080159;28;20076;-77
2023/09/07 10:21:45;;;;;;;3.67;2.00;;;28.40;99.90;;;;;;5081273;28;20060;-78
2023/09/07 10:24:11;;;;;;;1.90;1.60;;;28.50;99.90;;;;;;5081189;28;20044;-78
2023/09/07 10:26:37;;;;;;;2.92;1.58;;;28.60;99.90;;;;;;5071477;28;20052;-77
2023/09/07 10:29:05;;;;;;;2.42;1.60;;;28.60;99.90;;;;;;5075618;28;20047;-77
2023/09/07 10:31:31;;;;;;;2.88;1.67;;;28.80;99.90;;;;;;5083394;28;20481;-78
2023/09/07 10:34:09;;;;;;;2.10;1.85;;;28.90;99.90;;;;;;5077720;28;20065;-78
2023/09/07 10:36:37;;;;;;;3.33;1.98;;;28.90;99.90;;;;;;5098118;27;20412;-78
2023/09/07 10:39:04;;;;;;;2.80;1.70;;;28.90;99.00;;;;;;5080467;28;20452;-80
2023/09/07 10:41:41;;;;;;;2.40;1.77;;;28.90;99.90;;;;;;5075240;28;20048;-80
2023/09/07 10:44:07;;;;;;;2.40;1.85;;;29.10;99.90;;;;;;5084863;28;20044;-80
2023/09/07 10:46:33;;;;;;;1.85;1.67;;;29.00;99.90;;;;;;5085056;28;20071;-80
2023/09/07 10:48:59;;;;;;;2.50;1.85;;;29.20;99.90;;;;;;5065605;28;20036;-81
2023/09/07 10:51:25;;;;;;;2.42;1.80;;;29.10;77.60;;;;;;5081305;28;20158;-80
2023/09/07 10:53:50;;;;;;;2.22;1.60;;;29.20;99.90;;;;;;5082446;28;20518;-80
2023/09/07 10:56:16;;;;;;;2.95;1.45;;;29.40;52.60;;;;;;5092805;28;20052;-80
2023/09/07 10:58:43;;;;;;;1.92;1.50;;;29.60;99.90;;;;;;5073558;28;20123;-80
2023/09/07 11:01:09;;;;;;;2.72;1.88;;;29.80;99.90;;;;;;5070228;28;20055;-81
2023/09/07 11:03:37;;;;;;;2.30;1.92;;;29.90;1.00;;;;;;5066763;28;20584;-81
2023/09/07 11:06:11;;;;;;;1.77;1.60;;;29.80;1.00;;;;;;5077464;28;20036;-81
2023/09/07 11:08:37;;;;;;;2.15;1.77;;;30.00;1.00;;;;;;5068705;28;20075;-81
2023/09/07 11:11:03;;;;;;;2.25;1.83;;;30.10;1.00;;;;;;5085471;28;20592;-80
2023/09/07 11:13:30;;;;;;;2.55;1.80;;;30.10;1.00;;;;;;5086732;28;20161;-80
2023/09/07 11:15:57;;;;;;;3.05;1.70;;;30.10;1.00;;;;;;5078593;28;20459;-80
2023/09/07 11:18:24;;;;;;;2.22;1.85;;;30.30;1.00;;;;;;5056303;28;20042;-81
2023/09/07 11:20:50;;;;;;;2.67;1.77;;;30.30;99.90;;;;;;5081327;28;20116;-80
2023/09/07 11:23:21;;;;;;;2.45;1.70;;;30.20;99.90;;;;;;5071652;28;20048;-81
2023/09/07 11:25:48;;;;;;;2.20;1.70;;;30.20;99.90;;;;;;5073558;28;20381;-81
2023/09/07 11:28:17;;;;;;;1.73;1.48;;;30.30;99.90;;;;;;5084153;28;20036;-81
2023/09/07 11:30:51;;;;;;;2.05;1.77;;;30.30;99.90;;;;;;5085805;28;20054;-81
2023/09/07 11:33:16;;;;;;;3.13;1.83;;;30.40;99.90;;;;;;5062703;28;20119;-81
2023/09/07 11:35:42;;;;;;;1.75;1.52;;;30.30;99.90;;;;;;5081623;28;20604;-80
2023/09/07 11:38:10;;;;;;;3.03;1.95;;;30.50;99.90;;;;;;5081488;28;20491;-81
2023/09/07 11:40:36;;;;;;;2.65;1.67;;;30.50;99.90;;;;;;5076982;28;20044;-81
2023/09/07 11:43:02;;;;;;;2.95;1.50;;;30.60;99.90;;;;;;5071647;28;20036;-80
2023/09/07 11:45:28;;;;;;;2.30;1.70;;;30.80;99.90;;;;;;5077190;28;20040;-81
2023/09/07 11:47:54;;;;;;;2.50;1.77;;;30.70;99.90;;;;;;5070613;28;20036;-81
2023/09/07 11:50:23;;;;;;;2.88;2.00;;;30.70;99.90;;;;;;5074498;28;20502;-81
2023/09/07 11:52:48;;;;;;;1.98;1.60;;;30.60;99.90;;;;;;5086933;28;20146;-81
2023/09/07 11:55:14;;;;;;;2.92;1.70;;;30.90;99.90;;;;;;5070359;28;20505;-80
2023/09/07 11:57:41;;;;;;;1.67;1.50;;;31.00;99.90;;;;;;5077854;28;20502;-81
2023/09/07 12:00:09;;;;;;;1.60;1.50;;;31.20;99.90;;;;;;5046190;28;20448;-81
2023/09/07 12:02:35;;;;;;;1.40;1.30;;;31.20;99.90;;;;;;5082453;28;20045;-81
2023/09/07 12:05:03;;;;;;;2.25;1.70;;;31.20;99.90;;;;;;5092967;28;20051;-81
2023/09/07 12:07:30;;;;;;;2.65;1.65;;;31.20;99.90;;;;;;5070229;28;20551;-81
2023/09/07 12:09:57;;;;;;;2.05;1.75;;;31.20;99.90;;;;;;5087222;28;20044;-82
2023/09/07 12:12:23;;;;;;;2.88;1.92;;;31.10;99.90;;;;;;5067700;28;20048;-81
2023/09/07 12:14:49;;;;;;;1.88;1.35;;;31.20;99.90;;;;;;5070449;28;20082;-81
2023/09/07 12:17:15;;;;;;;4.35;1.88;;;31.30;99.90;;;;;;5068603;28;20051;-81
2023/09/07 12:19:45;;;;;;;2.08;1.73;;;31.20;99.90;;;;;;5091116;28;20055;-81
2023/09/07 12:22:11;;;;;;;1.60;1.40;;;31.30;99.90;;;;;;5084741;28;20048;-81
2023/09/07 12:24:37;;;;;;;1.77;1.50;;;31.30;99.90;;;;;;5080988;28;20050;-80
2023/09/07 12:27:03;;;;;;;2.08;1.73;;;31.30;99.90;;;;;;5081669;28;20168;-81
2023/09/07 12:29:29;;;;;;;1.95;1.70;;;31.30;96.80;;;;;;5086073;28;20051;-81
2023/09/07 12:31:56;;;;;;;1.80;1.30;;;31.30;92.30;;;;;;5080476;28;20036;-81
2023/09/07 12:34:22;;;;;;;1.90;1.60;;;31.50;96.90;;;;;;5079729;28;20499;-81
2023/09/07 12:36:49;;;;;;;2.53;1.85;;;31.40;76.50;;;;;;5090273;28;20047;-81
2023/09/07 12:39:15;;;;;;;2.38;1.83;;;31.50;95.40;;;;;;5058916;28;20048;-81
2023/09/07 12:41:41;;;;;;;2.20;1.80;;;31.20;65.30;;;;;;5090146;28;20043;-80
2023/09/07 12:44:07;;;;;;;1.80;1.50;;;31.30;74.10;;;;;;5064376;28;20532;-75
2023/09/07 12:46:33;;;;;;;2.95;1.90;;;31.50;83.80;;;;;;5056009;28;20051;-74
2023/09/07 12:48:58;;;;;;;2.35;1.50;;;31.70;53.90;;;;;;5081388;28;20044;-75
2023/09/07 12:51:24;;;;;;;1.67;1.40;;;31.80;62.90;;;;;;5089383;28;20050;-74
2023/09/07 12:53:51;;;;;;;1.80;1.40;;;31.90;75.80;;;;;;5091517;28;20396;-74
2023/09/07 12:56:18;;;;;;;1.50;1.30;;;32.00;61.20;;;;;;5083695;28;20112;-74